sensor_id;sensor_type;location;lat;lon;timestamp;pressure;altitude;pressure_sealevel;temperature;humidity
35716;BME280;21840;44.920;8.616;2023-07-13T00:02:15;100018.13;;;28.09;45.53
35716;BME280;21840;44.920;8.616;2023-07-13T00:04:41;100004.63;;;28.09;45.59
35716;BME280;21840;44.920;8.616;2023-07-13T00:07:07;99999.44;;;28.45;45.02
35716;BME280;21840;44.920;8.616;2023-07-13T00:09:33;100002.88;;;28.35;45.38
35716;BME280;21840;44.920;8.616;2023-07-13T00:12:00;100007.59;;;28.55;44.34
35716;BME280;21840;44.920;8.616;2023-07-13T00:14:27;100026.09;;;28.73;44.38
35716;BME280;21840;44.920;8.616;2023-07-13T00:16:53;100039.38;;;28.90;44.00
35716;BME280;21840;44.920;8.616;2023-07-13T00:19:19;100060.22;;;28.95;43.69
35716;BME280;21840;44.920;8.616;2023-07-13T00:21:44;100065.53;;;28.74;44.64
35716;BME280;21840;44.920;8.616;2023-07-13T00:24:17;100069.84;;;28.33;45.88
35716;BME280;21840;44.920;8.616;2023-07-13T00:26:48;100083.03;;;28.24;45.86
35716;BME280;21840;44.920;8.616;2023-07-13T00:29:14;100079.44;;;28.13;45.46
35716;BME280;21840;44.920;8.616;2023-07-13T00:31:39;100077.19;;;28.05;45.83
35716;BME280;21840;44.920;8.616;2023-07-13T00:34:05;100073.81;;;27.88;46.19
35716;BME280;21840;44.920;8.616;2023-07-13T00:36:31;100076.56;;;27.66;47.31
35716;BME280;21840;44.920;8.616;2023-07-13T00:38:56;100073.38;;;27.47;47.83
35716;BME280;21840;44.920;8.616;2023-07-13T00:41:23;100074.53;;;27.07;49.02
35716;BME280;21840;44.920;8.616;2023-07-13T00:43:49;100076.41;;;27.06;49.50
35716;BME280;21840;44.920;8.616;2023-07-13T00:46:20;100077.16;;;27.02;49.79
35716;BME280;21840;44.920;8.616;2023-07-13T00:48:47;100072.63;;;26.85;50.35
35716;BME280;21840;44.920;8.616;2023-07-13T00:51:16;100071.06;;;26.89;50.41
35716;BME280;21840;44.920;8.616;2023-07-13T00:53:42;100065.56;;;27.01;50.22
35716;BME280;21840;44.920;8.616;2023-07-13T00:56:08;100067.41;;;27.01;50.14
35716;BME280;21840;44.920;8.616;2023-07-13T00:58:34;100065.00;;;26.99;50.22
35716;BME280;21840;44.920;8.616;2023-07-13T01:01:00;100066.47;;;26.68;51.05
35716;BME280;21840;44.920;8.616;2023-07-13T01:03:26;100066.88;;;26.77;50.84
35716;BME280;21840;44.920;8.616;2023-07-13T01:05:53;100075.53;;;26.79;50.86
35716;BME280;21840;44.920;8.616;2023-07-13T01:08:20;100071.00;;;26.84;50.93
35716;BME280;21840;44.920;8.616;2023-07-13T01:10:57;100074.31;;;26.70;51.23
35716;BME280;21840;44.920;8.616;2023-07-13T01:13:23;100080.28;;;26.55;51.59
35716;BME280;21840;44.920;8.616;2023-07-13T01:15:51;100079.94;;;26.68;51.08
35716;BME280;21840;44.920;8.616;2023-07-13T01:18:25;100082.19;;;26.54;51.42
35716;BME280;21840;44.920;8.616;2023-07-13T01:23:23;100074.44;;;26.80;50.75
35716;BME280;21840;44.920;8.616;2023-07-13T01:25:50;100082.59;;;26.85;50.21
35716;BME280;21840;44.920;8.616;2023-07-13T01:28:15;100076.97;;;26.86;50.18
35716;BME280;21840;44.920;8.616;2023-07-13T01:30:43;100074.41;;;26.97;49.75
35716;BME280;21840;44.920;8.616;2023-07-13T01:33:14;100074.75;;;27.05;49.29
35716;BME280;21840;44.920;8.616;2023-07-13T01:35:40;100084.63;;;27.17;48.92
35716;BME280;21840;44.920;8.616;2023-07-13T01:38:06;100096.66;;;27.09;48.72
35716;BME280;21840;44.920;8.616;2023-07-13T01:40:33;100092.47;;;27.18;48.73
35716;BME280;21840;44.920;8.616;2023-07-13T01:43:02;100101.84;;;27.16;48.63
35716;BME280;21840;44.920;8.616;2023-07-13T01:45:28;100108.63;;;27.18;48.69
35716;BME280;21840;44.920;8.616;2023-07-13T01:47:53;100109.28;;;27.25;48.46
35716;BME280;21840;44.920;8.616;2023-07-13T01:50:19;100110.97;;;27.31;48.26
35716;BME280;21840;44.920;8.616;2023-07-13T01:52:45;100112.03;;;27.30;48.21
35716;BME280;21840;44.920;8.616;2023-07-13T01:55:11;100118.00;;;27.32;48.17
35716;BME280;21840;44.920;8.616;2023-07-13T01:57:36;100117.47;;;27.36;48.07
35716;BME280;21840;44.920;8.616;2023-07-13T02:00:06;100110.00;;;27.43;47.77
35716;BME280;21840;44.920;8.616;2023-07-13T02:02:41;100109.38;;;27.36;47.57
35716;BME280;21840;44.920;8.616;2023-07-13T02:05:08;100124.13;;;27.50;47.74
35716;BME280;21840;44.920;8.616;2023-07-13T02:07:34;100122.44;;;27.44;47.24
35716;BME280;21840;44.920;8.616;2023-07-13T02:09:59;100121.91;;;27.69;46.95
35716;BME280;21840;44.920;8.616;2023-07-13T02:12:25;100120.47;;;27.61;46.78
35716;BME280;21840;44.920;8.616;2023-07-13T02:14:50;100117.09;;;27.49;46.78
35716;BME280;21840;44.920;8.616;2023-07-13T02:17:16;100120.31;;;27.46;46.81
35716;BME280;21840;44.920;8.616;2023-07-13T02:19:41;100127.50;;;27.62;46.46
35716;BME280;21840;44.920;8.616;2023-07-13T02:22:07;100131.34;;;27.44;46.51
35716;BME280;21840;44.920;8.616;2023-07-13T02:24:32;100136.50;;;27.73;46.29
35716;BME280;21840;44.920;8.616;2023-07-13T02:27:01;100137.47;;;27.62;46.30
35716;BME280;21840;44.920;8.616;2023-07-13T02:29:26;100140.44;;;27.38;46.73
35716;BME280;21840;44.920;8.616;2023-07-13T02:31:52;100144.75;;;27.61;46.66
35716;BME280;21840;44.920;8.616;2023-07-13T02:34:17;100149.41;;;27.66;46.18
35716;BME280;21840;44.920;8.616;2023-07-13T02:36:43;100144.19;;;27.59;46.16
35716;BME280;21840;44.920;8.616;2023-07-13T02:39:08;100133.22;;;27.44;46.39
35716;BME280;21840;44.920;8.616;2023-07-13T02:41:35;100143.44;;;27.42;46.65
35716;BME280;21840;44.920;8.616;2023-07-13T02:44:02;100142.81;;;27.57;46.26
35716;BME280;21840;44.920;8.616;2023-07-13T02:46:31;100145.06;;;27.65;46.22
35716;BME280;21840;44.920;8.616;2023-07-13T02:48:57;100147.41;;;27.56;46.42
35716;BME280;21840;44.920;8.616;2023-07-13T02:51:22;100155.75;;;27.32;46.71
35716;BME280;21840;44.920;8.616;2023-07-13T02:53:48;100144.88;;;27.49;46.40
35716;BME280;21840;44.920;8.616;2023-07-13T02:56:13;100142.06;;;27.39;46.72
35716;BME280;21840;44.920;8.616;2023-07-13T02:58:39;100151.41;;;27.53;46.73
35716;BME280;21840;44.920;8.616;2023-07-13T03:01:09;100158.13;;;27.29;48.67
35716;BME280;21840;44.920;8.616;2023-07-13T03:03:35;100161.16;;;27.16;49.55
35716;BME280;21840;44.920;8.616;2023-07-13T03:06:03;100161.44;;;26.97;50.04
35716;BME280;21840;44.920;8.616;2023-07-13T03:08:35;100157.16;;;27.18;49.74
35716;BME280;21840;44.920;8.616;2023-07-13T03:11:09;100152.06;;;27.00;50.32
35716;BME280;21840;44.920;8.616;2023-07-13T03:13:40;100148.84;;;27.03;50.28
35716;BME280;21840;44.920;8.616;2023-07-13T03:16:09;100151.94;;;27.11;50.37
35716;BME280;21840;44.920;8.616;2023-07-13T03:18:36;100144.09;;;27.10;50.59
35716;BME280;21840;44.920;8.616;2023-07-13T03:21:05;100140.09;;;27.13;50.48
35716;BME280;21840;44.920;8.616;2023-07-13T03:23:31;100140.69;;;26.98;50.89
35716;BME280;21840;44.920;8.616;2023-07-13T03:26:17;100132.09;;;27.01;50.96
35716;BME280;21840;44.920;8.616;2023-07-13T03:28:43;100139.88;;;26.97;50.77
35716;BME280;21840;44.920;8.616;2023-07-13T03:31:27;100142.22;;;26.88;51.00
35716;BME280;21840;44.920;8.616;2023-07-13T03:33:54;100143.34;;;26.76;51.38
35716;BME280;21840;44.920;8.616;2023-07-13T03:36:22;100144.97;;;26.94;51.15
35716;BME280;21840;44.920;8.616;2023-07-13T03:38:53;100144.53;;;27.02;51.10
35716;BME280;21840;44.920;8.616;2023-07-13T03:41:22;100133.00;;;27.23;50.73
35716;BME280;21840;44.920;8.616;2023-07-13T03:43:49;100131.47;;;27.32;50.50
35716;BME280;21840;44.920;8.616;2023-07-13T03:46:17;100136.75;;;27.22;50.47
35716;BME280;21840;44.920;8.616;2023-07-13T03:48:45;100143.63;;;27.35;50.37
35716;BME280;21840;44.920;8.616;2023-07-13T03:51:13;100153.78;;;26.89;51.45
35716;BME280;21840;44.920;8.616;2023-07-13T03:53:42;100152.28;;;27.37;50.49
35716;BME280;21840;44.920;8.616;2023-07-13T03:56:10;100148.34;;;27.45;50.26
35716;BME280;21840;44.920;8.616;2023-07-13T03:58:38;100148.16;;;27.51;49.87
35716;BME280;21840;44.920;8.616;2023-07-13T04:01:11;100141.91;;;27.46;49.79
35716;BME280;21840;44.920;8.616;2023-07-13T04:03:38;100140.25;;;27.45;50.02
35716;BME280;21840;44.920;8.616;2023-07-13T04:06:07;100140.94;;;27.35;50.38
35716;BME280;21840;44.920;8.616;2023-07-13T04:08:35;100144.09;;;27.49;50.08
35716;BME280;21840;44.920;8.616;2023-07-13T04:11:02;100158.81;;;27.63;49.78
35716;BME280;21840;44.920;8.616;2023-07-13T04:13:28;100158.00;;;27.41;50.30
35716;BME280;21840;44.920;8.616;2023-07-13T04:15:54;100156.97;;;27.69;49.78
35716;BME280;21840;44.920;8.616;2023-07-13T04:18:20;100158.31;;;27.66;49.19
35716;BME280;21840;44.920;8.616;2023-07-13T04:20:46;100160.38;;;27.59;48.03
35716;BME280;21840;44.920;8.616;2023-07-13T04:23:11;100159.72;;;27.74;47.49
35716;BME280;21840;44.920;8.616;2023-07-13T04:25:37;100148.38;;;27.94;46.43
35716;BME280;21840;44.920;8.616;2023-07-13T04:28:03;100156.31;;;28.06;46.34
35716;BME280;21840;44.920;8.616;2023-07-13T04:30:29;100157.88;;;28.02;46.20
35716;BME280;21840;44.920;8.616;2023-07-13T04:32:54;100166.19;;;27.95;46.69
35716;BME280;21840;44.920;8.616;2023-07-13T04:35:20;100163.09;;;28.08;46.37
35716;BME280;21840;44.920;8.616;2023-07-13T04:37:47;100155.69;;;28.26;45.91
35716;BME280;21840;44.920;8.616;2023-07-13T04:40:16;100161.84;;;28.48;45.00
35716;BME280;21840;44.920;8.616;2023-07-13T04:42:42;100158.28;;;28.48;44.87
35716;BME280;21840;44.920;8.616;2023-07-13T04:45:08;100157.00;;;28.55;45.09
35716;BME280;21840;44.920;8.616;2023-07-13T04:47:33;100154.09;;;28.62;44.77
35716;BME280;21840;44.920;8.616;2023-07-13T04:49:59;100151.41;;;28.35;47.01
35716;BME280;21840;44.920;8.616;2023-07-13T04:52:24;100141.63;;;28.24;47.95
35716;BME280;21840;44.920;8.616;2023-07-13T04:54:50;100138.91;;;28.24;48.61
35716;BME280;21840;44.920;8.616;2023-07-13T04:57:15;100137.84;;;28.25;48.59
35716;BME280;21840;44.920;8.616;2023-07-13T04:59:41;100127.09;;;28.03;49.12
35716;BME280;21840;44.920;8.616;2023-07-13T05:02:07;100136.81;;;27.99;49.40
35716;BME280;21840;44.920;8.616;2023-07-13T05:04:32;100135.69;;;28.27;48.88
35716;BME280;21840;44.920;8.616;2023-07-13T05:06:59;100131.03;;;28.17;48.94
35716;BME280;21840;44.920;8.616;2023-07-13T05:09:24;100142.03;;;28.10;49.47
35716;BME280;21840;44.920;8.616;2023-07-13T05:11:50;100133.28;;;27.98;49.74
35716;BME280;21840;44.920;8.616;2023-07-13T05:14:15;100145.44;;;28.01;49.48
35716;BME280;21840;44.920;8.616;2023-07-13T05:16:42;100157.13;;;28.06;49.30
35716;BME280;21840;44.920;8.616;2023-07-13T05:19:08;100166.50;;;27.99;49.37
35716;BME280;21840;44.920;8.616;2023-07-13T05:21:34;100173.84;;;28.03;49.47
35716;BME280;21840;44.920;8.616;2023-07-13T05:23:59;100165.75;;;28.03;49.45
35716;BME280;21840;44.920;8.616;2023-07-13T05:26:25;100167.44;;;27.87;49.68
35716;BME280;21840;44.920;8.616;2023-07-13T05:28:50;100162.00;;;27.82;50.06
35716;BME280;21840;44.920;8.616;2023-07-13T05:31:16;100168.34;;;27.71;50.31
35716;BME280;21840;44.920;8.616;2023-07-13T05:33:41;100168.53;;;27.86;50.12
35716;BME280;21840;44.920;8.616;2023-07-13T05:36:07;100160.09;;;27.61;50.61
35716;BME280;21840;44.920;8.616;2023-07-13T05:38:33;100156.81;;;28.03;49.85
35716;BME280;21840;44.920;8.616;2023-07-13T05:40:58;100156.94;;;28.18;49.45
35716;BME280;21840;44.920;8.616;2023-07-13T05:43:24;100164.13;;;28.34;49.25
35716;BME280;21840;44.920;8.616;2023-07-13T05:45:53;100167.94;;;28.38;48.90
35716;BME280;21840;44.920;8.616;2023-07-13T05:48:19;100173.97;;;28.46;48.28
35716;BME280;21840;44.920;8.616;2023-07-13T05:50:44;100179.56;;;28.71;47.71
35716;BME280;21840;44.920;8.616;2023-07-13T05:53:09;100187.28;;;28.95;46.76
35716;BME280;21840;44.920;8.616;2023-07-13T05:55:35;100187.16;;;29.17;46.22
35716;BME280;21840;44.920;8.616;2023-07-13T05:58:01;100190.13;;;29.20;46.03
35716;BME280;21840;44.920;8.616;2023-07-13T06:00:26;100192.06;;;29.25;46.17
35716;BME280;21840;44.920;8.616;2023-07-13T06:02:52;100195.41;;;29.48;45.22
35716;BME280;21840;44.920;8.616;2023-07-13T06:05:18;100199.34;;;29.77;43.84
35716;BME280;21840;44.920;8.616;2023-07-13T06:07:44;100205.34;;;30.05;43.48
35716;BME280;21840;44.920;8.616;2023-07-13T06:10:10;100211.28;;;29.81;43.89
35716;BME280;21840;44.920;8.616;2023-07-13T06:12:35;100201.00;;;29.94;43.84
35716;BME280;21840;44.920;8.616;2023-07-13T06:15:01;100199.94;;;30.15;43.54
35716;BME280;21840;44.920;8.616;2023-07-13T06:17:26;100203.50;;;30.10;43.78
35716;BME280;21840;44.920;8.616;2023-07-13T06:19:52;100203.53;;;30.31;43.39
35716;BME280;21840;44.920;8.616;2023-07-13T06:22:17;100197.31;;;30.36;43.81
35716;BME280;21840;44.920;8.616;2023-07-13T06:24:43;100194.59;;;30.30;44.08
35716;BME280;21840;44.920;8.616;2023-07-13T06:27:08;100203.25;;;30.33;43.06
35716;BME280;21840;44.920;8.616;2023-07-13T06:29:33;100201.88;;;30.25;43.20
35716;BME280;21840;44.920;8.616;2023-07-13T06:31:59;100210.25;;;30.13;43.93
35716;BME280;21840;44.920;8.616;2023-07-13T06:34:24;100209.72;;;30.16;43.34
35716;BME280;21840;44.920;8.616;2023-07-13T06:36:50;100211.59;;;30.05;43.24
35716;BME280;21840;44.920;8.616;2023-07-13T06:39:15;100205.09;;;30.06;43.43
35716;BME280;21840;44.920;8.616;2023-07-13T06:41:44;100208.09;;;30.20;43.31
35716;BME280;21840;44.920;8.616;2023-07-13T06:44:13;100211.63;;;30.21;42.91
35716;BME280;21840;44.920;8.616;2023-07-13T06:46:38;100209.16;;;30.14;43.45
35716;BME280;21840;44.920;8.616;2023-07-13T06:49:03;100202.16;;;30.18;43.16
35716;BME280;21840;44.920;8.616;2023-07-13T06:51:29;100203.22;;;30.12;42.83
35716;BME280;21840;44.920;8.616;2023-07-13T06:53:54;100205.38;;;30.10;43.40
35716;BME280;21840;44.920;8.616;2023-07-13T06:56:21;100203.50;;;30.21;43.37
35716;BME280;21840;44.920;8.616;2023-07-13T06:58:47;100197.84;;;30.38;43.12
35716;BME280;21840;44.920;8.616;2023-07-13T07:01:12;100203.78;;;30.24;43.02
35716;BME280;21840;44.920;8.616;2023-07-13T07:03:38;100208.66;;;30.33;42.98
35716;BME280;21840;44.920;8.616;2023-07-13T07:06:13;100215.72;;;30.49;42.53
35716;BME280;21840;44.920;8.616;2023-07-13T07:08:40;100217.34;;;30.45;42.74
35716;BME280;21840;44.920;8.616;2023-07-13T07:11:07;100224.66;;;30.34;42.71
35716;BME280;21840;44.920;8.616;2023-07-13T07:13:33;100226.28;;;30.40;42.68
35716;BME280;21840;44.920;8.616;2023-07-13T07:15:58;100228.19;;;30.50;42.68
35716;BME280;21840;44.920;8.616;2023-07-13T07:18:25;100230.09;;;30.49;42.43
35716;BME280;21840;44.920;8.616;2023-07-13T07:20:51;100228.19;;;30.60;41.91
35716;BME280;21840;44.920;8.616;2023-07-13T07:23:17;100226.84;;;30.73;41.72
35716;BME280;21840;44.920;8.616;2023-07-13T07:25:44;100221.69;;;30.92;41.18
35716;BME280;21840;44.920;8.616;2023-07-13T07:28:09;100230.63;;;31.08;40.97
35716;BME280;21840;44.920;8.616;2023-07-13T07:30:35;100236.22;;;31.37;40.37
35716;BME280;21840;44.920;8.616;2023-07-13T07:33:04;100224.28;;;31.48;40.64
35716;BME280;21840;44.920;8.616;2023-07-13T07:35:30;100231.38;;;31.39;41.24
35716;BME280;21840;44.920;8.616;2023-07-13T07:37:59;100237.88;;;31.38;41.48
35716;BME280;21840;44.920;8.616;2023-07-13T07:40:24;100236.22;;;31.47;41.04
35716;BME280;21840;44.920;8.616;2023-07-13T07:42:50;100236.25;;;31.42;41.33
35716;BME280;21840;44.920;8.616;2023-07-13T07:45:20;100238.41;;;31.50;41.17
35716;BME280;21840;44.920;8.616;2023-07-13T07:47:46;100233.78;;;31.51;40.92
35716;BME280;21840;44.920;8.616;2023-07-13T07:50:12;100240.59;;;31.48;41.27
35716;BME280;21840;44.920;8.616;2023-07-13T07:52:37;100248.72;;;31.38;41.57
35716;BME280;21840;44.920;8.616;2023-07-13T07:55:06;100239.22;;;31.51;41.13
35716;BME280;21840;44.920;8.616;2023-07-13T07:57:32;100249.97;;;31.71;40.57
35716;BME280;21840;44.920;8.616;2023-07-13T07:59:57;100245.66;;;31.65;40.43
35716;BME280;21840;44.920;8.616;2023-07-13T08:02:26;100250.91;;;31.41;40.75
35716;BME280;21840;44.920;8.616;2023-07-13T08:04:52;100260.09;;;31.55;40.65
35716;BME280;21840;44.920;8.616;2023-07-13T08:07:18;100264.94;;;31.64;40.36
35716;BME280;21840;44.920;8.616;2023-07-13T08:09:43;100255.16;;;31.63;40.25
35716;BME280;21840;44.920;8.616;2023-07-13T08:12:09;100265.56;;;31.50;40.58
35716;BME280;21840;44.920;8.616;2023-07-13T08:14:35;100259.28;;;31.50;41.54
35716;BME280;21840;44.920;8.616;2023-07-13T08:17:00;100261.19;;;31.49;41.59
35716;BME280;21840;44.920;8.616;2023-07-13T08:19:26;100250.19;;;31.80;41.15
35716;BME280;21840;44.920;8.616;2023-07-13T08:21:51;100261.88;;;31.86;41.10
35716;BME280;21840;44.920;8.616;2023-07-13T08:24:16;100260.78;;;31.81;41.71
35716;BME280;21840;44.920;8.616;2023-07-13T08:26:44;100258.34;;;31.80;41.23
35716;BME280;21840;44.920;8.616;2023-07-13T08:29:10;100261.25;;;32.49;40.36
35716;BME280;21840;44.920;8.616;2023-07-13T08:31:36;100264.13;;;32.62;40.23
35716;BME280;21840;44.920;8.616;2023-07-13T08:34:01;100263.00;;;32.69;40.35
35716;BME280;21840;44.920;8.616;2023-07-13T08:36:28;100264.06;;;32.73;40.30
35716;BME280;21840;44.920;8.616;2023-07-13T08:38:54;100259.09;;;32.80;39.18
35716;BME280;21840;44.920;8.616;2023-07-13T08:41:23;100265.59;;;32.84;38.79
35716;BME280;21840;44.920;8.616;2023-07-13T08:43:51;100255.75;;;32.59;39.48
35716;BME280;21840;44.920;8.616;2023-07-13T08:46:26;100257.75;;;32.43;39.27
35716;BME280;21840;44.920;8.616;2023-07-13T08:54:23;100263.81;;;32.30;40.14
35716;BME280;21840;44.920;8.616;2023-07-13T08:56:53;100254.91;;;32.19;40.67
35716;BME280;21840;44.920;8.616;2023-07-13T08:59:22;100260.59;;;32.22;41.00
35716;BME280;21840;44.920;8.616;2023-07-13T09:04:32;100251.91;;;32.60;39.21
35716;BME280;21840;44.920;8.616;2023-07-13T09:07:14;100258.91;;;33.00;39.10
35716;BME280;21840;44.920;8.616;2023-07-13T09:10:45;100262.97;;;33.08;38.81
35716;BME280;21840;44.920;8.616;2023-07-13T09:15:30;100276.94;;;33.73;37.68
35716;BME280;21840;44.920;8.616;2023-07-13T09:18:01;100278.59;;;33.93;37.70
35716;BME280;21840;44.920;8.616;2023-07-13T09:21:00;100274.22;;;33.73;37.55
35716;BME280;21840;44.920;8.616;2023-07-13T09:23:29;100271.06;;;34.04;37.25
35716;BME280;21840;44.920;8.616;2023-07-13T09:26:10;100265.94;;;34.22;36.92
35716;BME280;21840;44.920;8.616;2023-07-13T09:28:45;100268.69;;;34.22;37.07
35716;BME280;21840;44.920;8.616;2023-07-13T09:31:18;100269.28;;;34.19;37.28
35716;BME280;21840;44.920;8.616;2023-07-13T09:33:44;100279.53;;;34.08;37.27
35716;BME280;21840;44.920;8.616;2023-07-13T09:36:23;100274.41;;;33.58;38.04
35716;BME280;21840;44.920;8.616;2023-07-13T09:38:58;100280.53;;;34.12;37.10
35716;BME280;21840;44.920;8.616;2023-07-13T09:41:33;100277.13;;;34.39;36.67
35716;BME280;21840;44.920;8.616;2023-07-13T09:44:14;100278.94;;;34.30;37.02
35716;BME280;21840;44.920;8.616;2023-07-13T09:46:54;100280.56;;;34.07;36.96
35716;BME280;21840;44.920;8.616;2023-07-13T09:49:27;100281.78;;;34.57;36.71
35716;BME280;21840;44.920;8.616;2023-07-13T09:52:05;100278.91;;;34.49;36.36
35716;BME280;21840;44.920;8.616;2023-07-13T09:54:34;100282.81;;;34.43;36.25
35716;BME280;21840;44.920;8.616;2023-07-13T09:57:02;100275.78;;;34.23;36.82
35716;BME280;21840;44.920;8.616;2023-07-13T09:59:34;100280.25;;;34.13;36.79
35716;BME280;21840;44.920;8.616;2023-07-13T10:02:00;100293.66;;;34.29;36.55
35716;BME280;21840;44.920;8.616;2023-07-13T10:04:32;100286.97;;;34.40;35.98
35716;BME280;21840;44.920;8.616;2023-07-13T10:07:06;100295.13;;;34.40;35.99
35716;BME280;21840;44.920;8.616;2023-07-13T10:09:32;100291.44;;;34.50;35.93
35716;BME280;21840;44.920;8.616;2023-07-13T10:12:01;100293.28;;;34.17;36.58
35716;BME280;21840;44.920;8.616;2023-07-13T10:14:27;100298.78;;;34.49;36.10
35716;BME280;21840;44.920;8.616;2023-07-13T10:16:59;100289.53;;;34.50;35.95
35716;BME280;21840;44.920;8.616;2023-07-13T10:19:31;100283.47;;;34.53;36.35
35716;BME280;21840;44.920;8.616;2023-07-13T10:24:46;100282.16;;;34.32;36.61
35716;BME280;21840;44.920;8.616;2023-07-13T10:30:09;100276.13;;;34.35;36.21
35716;BME280;21840;44.920;8.616;2023-07-13T10:32:39;100274.13;;;34.41;36.11
35716;BME280;21840;44.920;8.616;2023-07-13T10:35:12;100269.31;;;34.70;35.63
35716;BME280;21840;44.920;8.616;2023-07-13T10:38:00;100272.28;;;34.55;35.70
35716;BME280;21840;44.920;8.616;2023-07-13T10:41:04;100254.75;;;34.61;36.17
35716;BME280;21840;44.920;8.616;2023-07-13T10:43:42;100255.84;;;34.41;36.06
35716;BME280;21840;44.920;8.616;2023-07-13T10:46:11;100242.31;;;34.17;36.57
35716;BME280;21840;44.920;8.616;2023-07-13T10:48:39;100240.97;;;34.14;37.24
35716;BME280;21840;44.920;8.616;2023-07-13T10:51:06;100238.94;;;34.25;37.06
35716;BME280;21840;44.920;8.616;2023-07-13T10:53:34;100235.25;;;34.35;36.62
35716;BME280;21840;44.920;8.616;2023-07-13T11:03:22;100236.16;;;34.44;37.29
35716;BME280;21840;44.920;8.616;2023-07-13T11:05:50;100233.22;;;34.41;37.02
35716;BME280;21840;44.920;8.616;2023-07-13T11:08:21;100230.09;;;34.47;37.12
35716;BME280;21840;44.920;8.616;2023-07-13T11:10:57;100222.97;;;34.51;36.84
35716;BME280;21840;44.920;8.616;2023-07-13T11:13:39;100216.25;;;34.63;37.01
35716;BME280;21840;44.920;8.616;2023-07-13T11:18:47;100215.56;;;34.71;36.65
35716;BME280;21840;44.920;8.616;2023-07-13T11:21:25;100219.47;;;34.65;36.62
35716;BME280;21840;44.920;8.616;2023-07-13T11:31:41;100199.94;;;34.90;36.05
35716;BME280;21840;44.920;8.616;2023-07-13T11:34:13;100201.44;;;34.96;36.09
35716;BME280;21840;44.920;8.616;2023-07-13T11:36:43;100203.06;;;34.84;36.70
35716;BME280;21840;44.920;8.616;2023-07-13T11:39:16;100197.63;;;34.32;37.69
35716;BME280;21840;44.920;8.616;2023-07-13T11:41:56;100201.22;;;34.79;36.68
35716;BME280;21840;44.920;8.616;2023-07-13T11:44:25;100189.69;;;34.82;36.34
35716;BME280;21840;44.920;8.616;2023-07-13T11:46:53;100187.25;;;35.13;35.92
35716;BME280;21840;44.920;8.616;2023-07-13T11:49:25;100178.25;;;35.13;36.15
35716;BME280;21840;44.920;8.616;2023-07-13T11:51:52;100181.28;;;35.11;36.12
35716;BME280;21840;44.920;8.616;2023-07-13T11:54:33;100178.66;;;35.20;35.50
35716;BME280;21840;44.920;8.616;2023-07-13T11:57:29;100180.84;;;35.46;34.89
35716;BME280;21840;44.920;8.616;2023-07-13T12:00:00;100174.47;;;35.36;35.31
35716;BME280;21840;44.920;8.616;2023-07-13T12:02:35;100179.03;;;35.41;35.00
35716;BME280;21840;44.920;8.616;2023-07-13T12:05:03;100168.44;;;35.12;35.70
35716;BME280;21840;44.920;8.616;2023-07-13T12:07:32;100171.06;;;34.05;37.82
35716;BME280;21840;44.920;8.616;2023-07-13T12:10:22;100167.78;;;35.01;36.28
35716;BME280;21840;44.920;8.616;2023-07-13T12:15:17;100168.84;;;35.33;35.77
35716;BME280;21840;44.920;8.616;2023-07-13T12:17:43;100159.28;;;35.58;35.37
35716;BME280;21840;44.920;8.616;2023-07-13T12:20:26;100153.22;;;35.97;34.59
35716;BME280;21840;44.920;8.616;2023-07-13T12:22:55;100156.06;;;35.92;34.42
35716;BME280;21840;44.920;8.616;2023-07-13T12:25:22;100158.00;;;36.14;34.01
35716;BME280;21840;44.920;8.616;2023-07-13T12:27:49;100161.47;;;36.06;34.04
35716;BME280;21840;44.920;8.616;2023-07-13T12:30:25;100156.75;;;36.43;33.38
35716;BME280;21840;44.920;8.616;2023-07-13T12:33:00;100154.13;;;37.00;32.85
35716;BME280;21840;44.920;8.616;2023-07-13T12:35:29;100153.78;;;36.93;32.74
35716;BME280;21840;44.920;8.616;2023-07-13T12:38:08;100152.34;;;36.96;33.01
35716;BME280;21840;44.920;8.616;2023-07-13T12:40:36;100151.47;;;37.26;32.59
35716;BME280;21840;44.920;8.616;2023-07-13T12:43:03;100161.66;;;37.43;31.77
35716;BME280;21840;44.920;8.616;2023-07-13T12:45:32;100149.88;;;37.25;32.46
35716;BME280;21840;44.920;8.616;2023-07-13T12:48:18;100160.88;;;37.51;31.95
35716;BME280;21840;44.920;8.616;2023-07-13T12:50:48;100159.13;;;37.73;31.83
35716;BME280;21840;44.920;8.616;2023-07-13T12:53:35;100163.56;;;37.34;32.78
35716;BME280;21840;44.920;8.616;2023-07-13T12:56:05;100164.53;;;36.81;34.39
35716;BME280;21840;44.920;8.616;2023-07-13T12:58:39;100161.94;;;36.53;35.07
35716;BME280;21840;44.920;8.616;2023-07-13T13:01:11;100156.66;;;36.57;34.13
35716;BME280;21840;44.920;8.616;2023-07-13T13:03:38;100162.56;;;36.50;34.40
35716;BME280;21840;44.920;8.616;2023-07-13T13:06:21;100169.13;;;36.40;34.83
35716;BME280;21840;44.920;8.616;2023-07-13T13:08:54;100181.91;;;36.31;34.63
35716;BME280;21840;44.920;8.616;2023-07-13T13:11:21;100185.47;;;36.32;34.87
35716;BME280;21840;44.920;8.616;2023-07-13T13:13:48;100183.56;;;36.32;35.23
35716;BME280;21840;44.920;8.616;2023-07-13T13:16:20;100181.34;;;35.98;35.50
35716;BME280;21840;44.920;8.616;2023-07-13T13:18:47;100177.22;;;36.23;35.26
35716;BME280;21840;44.920;8.616;2023-07-13T13:21:13;100169.03;;;36.54;34.61
35716;BME280;21840;44.920;8.616;2023-07-13T13:23:38;100174.97;;;36.25;35.11
35716;BME280;21840;44.920;8.616;2023-07-13T13:26:10;100165.09;;;36.38;34.75
35716;BME280;21840;44.920;8.616;2023-07-13T13:28:36;100163.66;;;36.40;35.06
35716;BME280;21840;44.920;8.616;2023-07-13T13:31:01;100159.88;;;36.27;35.40
35716;BME280;21840;44.920;8.616;2023-07-13T13:33:27;100155.00;;;36.24;35.41
35716;BME280;21840;44.920;8.616;2023-07-13T13:35:52;100144.03;;;36.16;35.22
35716;BME280;21840;44.920;8.616;2023-07-13T13:38:20;100150.16;;;36.21;35.66